createdAt,value
2023-01-17T00:02:01.066Z,4.40
2023-01-17T00:04:47.469Z,8.20
2023-01-17T00:07:34.935Z,4.88
2023-01-17T00:10:07.251Z,1.48
2023-01-17T00:12:34.715Z,5.20
2023-01-17T00:15:02.043Z,3.00
2023-01-17T00:17:29.857Z,4.10
2023-01-17T00:20:15.910Z,2.05
2023-01-17T00:23:02.355Z,3.80
2023-01-17T00:25:51.456Z,1.98
2023-01-17T00:28:18.746Z,1.05
2023-01-17T00:30:46.119Z,4.73
2023-01-17T00:33:13.543Z,1.73
2023-01-17T00:35:40.591Z,2.80
2023-01-17T00:38:12.804Z,2.35
2023-01-17T00:40:41.586Z,3.75
2023-01-17T00:43:28.270Z,1.80
2023-01-17T00:46:14.500Z,3.83
2023-01-17T00:49:00.507Z,3.58
2023-01-17T00:51:47.393Z,1.88
2023-01-17T00:54:33.309Z,3.80
2023-01-17T00:57:19.522Z,2.20
2023-01-17T01:00:04.768Z,2.47
2023-01-17T01:02:50.707Z,1.55
2023-01-17T01:05:36.755Z,1.10
2023-01-17T01:08:22.712Z,1.50
2023-01-17T01:11:08.274Z,3.90
2023-01-17T01:13:53.470Z,1.65
2023-01-17T01:16:39.266Z,4.00
2023-01-17T01:19:24.999Z,2.65
2023-01-17T01:22:10.399Z,0.85
2023-01-17T01:24:55.817Z,3.17
2023-01-17T01:27:41.325Z,3.33
2023-01-17T01:30:27.226Z,3.35
2023-01-17T01:33:12.606Z,1.98
2023-01-17T01:35:39.452Z,3.03
2023-01-17T01:38:06.473Z,3.23
2023-01-17T01:40:33.243Z,4.70
2023-01-17T01:43:03.148Z,3.45
2023-01-17T01:45:32.263Z,2.28
2023-01-17T01:48:05.041Z,2.30
2023-01-17T01:50:33.919Z,2.57
2023-01-17T01:53:03.472Z,1.67
2023-01-17T01:55:37.575Z,2.08
2023-01-17T01:58:18.726Z,4.80
2023-01-17T02:00:45.710Z,3.80
2023-01-17T02:03:27.245Z,3.40
2023-01-17T02:05:54.180Z,3.72
2023-01-17T02:08:23.926Z,2.72
2023-01-17T02:10:51.289Z,3.17
2023-01-17T02:13:20.360Z,4.55
2023-01-17T02:16:12.196Z,2.37
2023-01-17T02:18:59.093Z,2.97
2023-01-17T02:21:28.655Z,6.40
2023-01-17T02:24:01.473Z,6.22
2023-01-17T02:27:07.222Z,3.08
2023-01-17T02:29:36.883Z,5.60
2023-01-17T02:32:07.214Z,3.42
2023-01-17T02:34:52.794Z,5.03
2023-01-17T02:37:43.215Z,6.07
2023-01-17T02:40:24.846Z,5.93
2023-01-17T02:43:02.856Z,3.87
2023-01-17T02:45:29.954Z,3.78
2023-01-17T02:47:56.984Z,3.22
2023-01-17T02:50:43.217Z,5.63
2023-01-17T02:53:31.489Z,7.45
2023-01-17T02:56:11.721Z,7.30
2023-01-17T02:59:09.575Z,3.47
2023-01-17T03:01:39.345Z,6.13
2023-01-17T03:04:21.576Z,6.18
2023-01-17T03:06:56.513Z,5.65
2023-01-17T03:09:25.463Z,2.83
2023-01-17T03:11:52.684Z,5.35
2023-01-17T03:14:19.513Z,6.30
2023-01-17T03:16:47.237Z,4.70
2023-01-17T03:19:14.734Z,5.13
2023-01-17T03:21:41.748Z,7.93
2023-01-17T03:24:08.815Z,4.43
2023-01-17T03:26:35.566Z,7.00
2023-01-17T03:29:02.556Z,6.25
2023-01-17T03:31:29.488Z,3.90
2023-01-17T03:33:56.397Z,1.43
2023-01-17T03:36:23.164Z,3.40
2023-01-17T03:38:50.086Z,3.58
2023-01-17T03:41:17.123Z,5.07
2023-01-17T03:43:44.056Z,4.80
2023-01-17T03:46:23.670Z,3.57
2023-01-17T03:48:50.795Z,1.40
2023-01-17T03:51:18.346Z,6.03
2023-01-17T03:53:47.016Z,5.53
2023-01-17T03:56:14.664Z,4.53
2023-01-17T03:58:41.826Z,1.80
2023-01-17T04:01:08.910Z,3.50
2023-01-17T04:03:35.897Z,5.82
2023-01-17T04:06:02.694Z,4.72
2023-01-17T04:08:30.475Z,5.22
2023-01-17T04:10:57.403Z,5.10
2023-01-17T04:13:24.378Z,7.10
2023-01-17T04:15:51.775Z,6.55
2023-01-17T04:18:20.410Z,5.28
2023-01-17T04:20:47.750Z,7.00
2023-01-17T04:23:14.613Z,2.90
2023-01-17T04:25:41.388Z,4.90
2023-01-17T04:28:08.289Z,4.93
2023-01-17T04:30:35.134Z,3.63
2023-01-17T04:33:02.927Z,4.25
2023-01-17T04:35:31.034Z,4.13
2023-01-17T04:37:57.972Z,7.05
2023-01-17T04:40:25.042Z,4.82
2023-01-17T04:42:52.035Z,3.97
2023-01-17T04:45:18.900Z,3.20
2023-01-17T04:47:45.772Z,5.97
2023-01-17T04:50:12.917Z,4.50
2023-01-17T04:52:39.797Z,5.10
2023-01-17T04:55:07.417Z,5.20
2023-01-17T04:57:34.328Z,4.13
2023-01-17T05:00:01.196Z,3.93
2023-01-17T05:02:28.249Z,3.65
2023-01-17T05:04:55.135Z,3.92
2023-01-17T05:07:21.925Z,4.45
2023-01-17T05:09:48.773Z,7.38
2023-01-17T05:12:15.574Z,9.13
2023-01-17T05:14:42.405Z,6.35
2023-01-17T05:17:11.235Z,5.45
2023-01-17T05:19:38.302Z,3.78
2023-01-17T05:22:14.862Z,8.82
2023-01-17T05:24:43.256Z,6.90
2023-01-17T05:27:11.481Z,6.68
2023-01-17T05:29:38.588Z,5.88
2023-01-17T05:32:06.301Z,6.90
2023-01-17T05:34:33.166Z,8.95
2023-01-17T05:36:59.957Z,4.60
2023-01-17T05:39:27.223Z,10.60
2023-01-17T05:41:53.942Z,4.18
2023-01-17T05:44:20.795Z,5.35
2023-01-17T05:46:47.598Z,8.90
2023-01-17T05:49:14.345Z,5.03
2023-01-17T05:51:41.185Z,6.68
2023-01-17T05:54:07.998Z,9.35
2023-01-17T05:56:35.006Z,7.35
2023-01-17T05:59:01.934Z,4.45
2023-01-17T06:01:28.780Z,15.90
2023-01-17T06:03:55.552Z,4.82
2023-01-17T06:06:22.376Z,10.07
2023-01-17T06:08:49.212Z,9.95
2023-01-17T06:11:16.132Z,10.93
2023-01-17T06:13:42.887Z,5.70
2023-01-17T06:16:09.943Z,5.50
2023-01-17T06:18:36.821Z,8.02
2023-01-17T06:21:03.645Z,5.47
2023-01-17T06:23:30.581Z,8.30
2023-01-17T06:25:57.392Z,5.17
2023-01-17T06:28:24.177Z,7.13
2023-01-17T06:30:51.050Z,5.50
2023-01-17T06:33:17.922Z,4.55
2023-01-17T06:35:52.189Z,7.63
2023-01-17T06:38:19.674Z,8.60
2023-01-17T06:40:46.515Z,9.65
2023-01-17T06:43:13.292Z,6.18
2023-01-17T06:45:40.130Z,6.55
2023-01-17T06:48:07.019Z,6.18
2023-01-17T06:50:34.938Z,6.30
2023-01-17T06:53:04.511Z,4.47
2023-01-17T06:55:33.736Z,5.82
2023-01-17T06:58:02.537Z,6.50
2023-01-17T07:00:31.311Z,7.82
2023-01-17T07:02:58.272Z,6.30
2023-01-17T07:05:25.256Z,4.68
2023-01-17T07:07:53.110Z,4.50
2023-01-17T07:10:20.225Z,3.75
2023-01-17T07:12:46.971Z,6.45
2023-01-17T07:15:14.030Z,9.73
2023-01-17T07:17:40.911Z,4.97
2023-01-17T07:20:08.651Z,4.60
2023-01-17T07:22:37.506Z,7.38
2023-01-17T07:25:04.735Z,4.93
2023-01-17T07:27:33.765Z,10.20
2023-01-17T07:30:00.918Z,8.10
2023-01-17T07:32:28.745Z,8.40
2023-01-17T07:34:57.564Z,7.88
2023-01-17T07:37:26.341Z,9.50
2023-01-17T07:39:54.572Z,6.77
2023-01-17T07:42:23.969Z,6.95
2023-01-17T07:44:51.067Z,5.10
2023-01-17T07:47:17.972Z,5.22
2023-01-17T07:49:44.827Z,4.93
2023-01-17T07:52:12.027Z,5.07
2023-01-17T07:54:38.942Z,3.40
2023-01-17T07:57:06.010Z,8.90
2023-01-17T07:59:34.537Z,11.43
2023-01-17T08:02:01.495Z,6.50
2023-01-17T08:04:34.608Z,4.67
2023-01-17T08:07:02.120Z,7.55
2023-01-17T08:09:29.023Z,5.82
2023-01-17T08:11:55.898Z,5.72
2023-01-17T08:14:22.861Z,6.05
2023-01-17T08:16:49.699Z,4.17
2023-01-17T08:19:17.182Z,6.10
2023-01-17T08:21:44.095Z,11.77
2023-01-17T08:24:15.006Z,5.82
2023-01-17T08:26:41.973Z,9.48
2023-01-17T08:29:09.388Z,6.83
2023-01-17T08:31:36.723Z,6.35
2023-01-17T08:34:03.768Z,6.15
2023-01-17T08:36:31.323Z,6.57
2023-01-17T08:38:58.558Z,7.35
2023-01-17T08:41:27.739Z,5.17
2023-01-17T08:43:54.674Z,6.45
2023-01-17T08:46:21.677Z,7.28
2023-01-17T08:48:52.509Z,7.32
2023-01-17T08:51:20.527Z,5.88
2023-01-17T08:53:48.503Z,7.60
2023-01-17T08:56:15.405Z,9.05
2023-01-17T08:58:42.408Z,8.23
2023-01-17T09:01:09.639Z,4.18
2023-01-17T09:03:38.854Z,6.25
2023-01-17T09:06:08.207Z,6.70
2023-01-17T09:08:35.646Z,6.38
2023-01-17T09:11:07.364Z,5.28
2023-01-17T09:13:34.462Z,6.93
2023-01-17T09:16:01.719Z,6.60
2023-01-17T09:18:29.478Z,6.00
2023-01-17T09:20:59.219Z,5.05
2023-01-17T09:23:27.860Z,9.63
2023-01-17T09:25:59.200Z,4.60
2023-01-17T09:28:27.372Z,5.85
2023-01-17T09:30:54.531Z,5.57
2023-01-17T09:33:23.249Z,6.43
2023-01-17T09:35:50.393Z,8.90
2023-01-17T09:38:17.831Z,7.38
2023-01-17T09:40:49.001Z,6.65
2023-01-17T09:43:47.833Z,7.20
2023-01-17T09:46:23.871Z,6.07
2023-01-17T09:49:00.841Z,7.30
2023-01-17T09:51:27.850Z,9.27
2023-01-17T09:53:55.390Z,7.28
2023-01-17T09:56:31.709Z,7.43
2023-01-17T09:59:32.737Z,11.15
2023-01-17T10:02:26.732Z,8.75
2023-01-17T10:05:18.578Z,9.73
2023-01-17T10:08:16.671Z,6.18
2023-01-17T10:10:55.921Z,9.13
2023-01-17T10:13:56.613Z,8.07
2023-01-17T10:16:55.033Z,10.27
2023-01-17T10:19:52.806Z,9.70
2023-01-17T10:22:36.936Z,11.45
2023-01-17T10:25:33.168Z,12.80
2023-01-17T10:28:06.220Z,8.38
2023-01-17T10:30:38.691Z,10.13
2023-01-17T10:33:18.703Z,8.68
2023-01-17T10:35:54.853Z,9.55
2023-01-17T10:38:31.019Z,13.93
2023-01-17T10:41:04.015Z,8.82
2023-01-17T10:43:44.450Z,12.20
2023-01-17T10:46:30.319Z,7.85
2023-01-17T10:48:57.937Z,9.13
2023-01-17T10:51:42.914Z,7.43
2023-01-17T10:54:42.905Z,9.55
2023-01-17T10:57:17.549Z,7.90
2023-01-17T10:59:44.623Z,9.60
2023-01-17T11:02:19.874Z,7.05
2023-01-17T11:04:51.079Z,6.47
2023-01-17T11:07:22.176Z,8.43
2023-01-17T11:09:51.584Z,8.82
2023-01-17T11:12:38.173Z,7.95
2023-01-17T11:15:11.018Z,6.80
2023-01-17T11:17:43.993Z,8.50
2023-01-17T11:20:29.797Z,6.72
2023-01-17T11:23:12.544Z,6.63
2023-01-17T11:25:39.550Z,6.85
2023-01-17T11:28:17.907Z,8.10
2023-01-17T11:31:03.642Z,10.03
2023-01-17T11:33:57.045Z,8.52
2023-01-17T11:36:30.969Z,9.85
2023-01-17T11:39:30.806Z,6.07
2023-01-17T11:41:59.321Z,7.00
2023-01-17T11:44:26.249Z,7.30
2023-01-17T11:47:11.820Z,7.80
2023-01-17T11:49:49.064Z,7.53
2023-01-17T11:52:18.623Z,7.47
2023-01-17T11:54:50.171Z,8.25
2023-01-17T11:57:28.285Z,7.87
2023-01-17T12:00:08.529Z,8.13
2023-01-17T12:03:10.680Z,5.15
2023-01-17T12:06:01.705Z,5.28
2023-01-17T12:08:56.821Z,5.88
2023-01-17T12:11:36.077Z,5.23
2023-01-17T12:14:29.610Z,4.78
2023-01-17T12:17:11.672Z,5.40
2023-01-17T12:20:04.980Z,4.95
2023-01-17T12:22:56.703Z,8.13
2023-01-17T12:25:23.886Z,5.63
2023-01-17T12:27:51.176Z,6.25
2023-01-17T12:30:33.034Z,7.35
2023-01-17T12:33:12.075Z,9.65
2023-01-17T12:35:56.776Z,6.10
2023-01-17T12:38:33.475Z,6.70
2023-01-17T12:41:14.368Z,5.22
2023-01-17T12:43:41.663Z,8.35
2023-01-17T12:46:31.035Z,5.20
2023-01-17T12:49:30.367Z,4.00
2023-01-17T12:52:06.622Z,7.47
2023-01-17T12:54:41.641Z,5.15
2023-01-17T12:57:29.568Z,4.63
2023-01-17T13:00:06.919Z,5.18
2023-01-17T13:02:55.417Z,5.57
2023-01-17T13:05:29.726Z,5.43
2023-01-17T13:08:19.792Z,4.82
2023-01-17T13:11:18.437Z,5.68
2023-01-17T13:13:45.837Z,4.40
2023-01-17T13:16:37.634Z,7.88
2023-01-17T13:19:14.535Z,5.80
2023-01-17T13:21:41.717Z,5.93
2023-01-17T13:24:22.751Z,6.28
2023-01-17T13:27:36.958Z,6.03
2023-01-17T13:30:12.226Z,5.35
2023-01-17T13:33:01.614Z,5.43
2023-01-17T13:36:07.136Z,6.55
2023-01-17T13:39:15.139Z,6.32
2023-01-17T13:41:52.359Z,4.32
2023-01-17T13:44:22.954Z,6.15
2023-01-17T13:46:56.636Z,5.10
2023-01-17T13:49:29.365Z,3.45
2023-01-17T13:52:12.136Z,5.13
2023-01-17T13:55:00.974Z,6.15
2023-01-17T13:57:32.918Z,4.43
2023-01-17T14:00:36.293Z,3.93
2023-01-17T14:03:03.287Z,6.45
2023-01-17T14:05:30.262Z,3.30
2023-01-17T14:08:00.871Z,3.97
2023-01-17T14:10:41.591Z,5.65
2023-01-17T14:13:43.994Z,3.70
2023-01-17T14:16:25.619Z,3.30
2023-01-17T14:18:53.891Z,5.70
2023-01-17T14:21:24.740Z,7.80
2023-01-17T14:24:04.082Z,4.82
2023-01-17T14:26:39.122Z,5.63
2023-01-17T14:29:45.294Z,5.90
2023-01-17T14:32:17.801Z,4.65
2023-01-17T14:34:47.620Z,5.78
2023-01-17T14:37:29.573Z,4.18
2023-01-17T14:39:56.652Z,7.90
2023-01-17T14:42:26.540Z,3.22
2023-01-17T14:45:09.771Z,4.18
2023-01-17T14:47:39.507Z,6.03
2023-01-17T14:50:21.856Z,5.22
2023-01-17T14:53:05.515Z,3.53
2023-01-17T14:55:32.421Z,7.00
2023-01-17T14:57:59.286Z,5.30
2023-01-17T15:00:29.326Z,8.77
2023-01-17T15:02:59.284Z,18.08
2023-01-17T15:05:28.057Z,10.57
2023-01-17T15:07:57.370Z,30.63
2023-01-17T15:10:30.296Z,26.85
2023-01-17T15:13:05.456Z,26.75
2023-01-17T15:15:35.203Z,10.43
2023-01-17T15:18:13.406Z,7.03
2023-01-17T15:20:48.838Z,5.20
2023-01-17T15:23:23.481Z,15.95
2023-01-17T15:25:52.412Z,11.73
2023-01-17T15:28:19.559Z,24.92
2023-01-17T15:31:03.597Z,8.70
2023-01-17T15:33:32.610Z,12.00
2023-01-17T15:36:25.683Z,17.98
2023-01-17T15:39:00.194Z,4.47
2023-01-17T15:41:32.088Z,6.72
2023-01-17T15:43:59.272Z,11.00
2023-01-17T15:46:32.375Z,10.48
2023-01-17T15:49:17.885Z,11.07
2023-01-17T15:52:18.389Z,5.93
2023-01-17T15:54:55.899Z,14.57
2023-01-17T15:57:29.024Z,6.83
2023-01-17T16:00:20.360Z,9.40
2023-01-17T16:02:55.212Z,19.63
2023-01-17T16:05:22.799Z,16.48
2023-01-17T16:07:51.805Z,15.95
2023-01-17T16:10:20.988Z,13.57
2023-01-17T16:12:53.602Z,14.05
2023-01-17T16:15:22.012Z,21.05
2023-01-17T16:17:52.449Z,17.67
2023-01-17T16:20:34.091Z,20.60
2023-01-17T16:23:01.868Z,9.33
2023-01-17T16:25:32.436Z,8.70
2023-01-17T16:27:59.769Z,17.00
2023-01-17T16:30:27.481Z,19.13
2023-01-17T16:32:56.541Z,11.55
2023-01-17T16:35:27.736Z,15.70
2023-01-17T16:37:56.801Z,11.73
2023-01-17T16:40:29.965Z,14.65
2023-01-17T16:42:58.058Z,15.63
2023-01-17T16:45:25.041Z,17.83
2023-01-17T16:47:54.803Z,11.97
2023-01-17T16:50:25.373Z,9.00
2023-01-17T16:52:54.234Z,11.38
2023-01-17T16:55:24.313Z,15.68
2023-01-17T16:57:54.129Z,13.70
2023-01-17T17:00:22.652Z,12.90
2023-01-17T17:02:50.931Z,11.77
2023-01-17T17:05:18.021Z,15.98
2023-01-17T17:07:50.771Z,13.27
2023-01-17T17:10:20.505Z,8.90
2023-01-17T17:12:47.415Z,13.10
2023-01-17T17:15:14.761Z,9.70
2023-01-17T17:17:43.324Z,10.27
2023-01-17T17:20:13.880Z,9.20
2023-01-17T17:22:44.065Z,16.88
2023-01-17T17:25:12.122Z,12.63
2023-01-17T17:27:38.948Z,15.23
2023-01-17T17:30:06.602Z,12.90
2023-01-17T17:32:33.521Z,15.38
2023-01-17T17:35:00.514Z,11.10
2023-01-17T17:37:30.772Z,10.07
2023-01-17T17:39:58.027Z,11.70
2023-01-17T17:42:25.610Z,10.55
2023-01-17T17:44:52.780Z,11.38
2023-01-17T17:47:19.673Z,14.82
2023-01-17T17:49:46.446Z,12.30
2023-01-17T17:52:13.347Z,16.63
2023-01-17T17:54:40.556Z,12.57
2023-01-17T17:57:07.608Z,13.48
2023-01-17T17:59:34.533Z,12.50
2023-01-17T18:02:01.528Z,10.13
2023-01-17T18:04:28.472Z,12.25
2023-01-17T18:06:57.257Z,12.88
2023-01-17T18:09:24.618Z,13.13
2023-01-17T18:11:51.526Z,12.05
2023-01-17T18:14:21.101Z,10.33
2023-01-17T18:16:48.159Z,16.58
2023-01-17T18:19:21.788Z,23.63
2023-01-17T18:21:50.392Z,14.02
2023-01-17T18:24:19.892Z,18.08
2023-01-17T18:26:55.958Z,20.77
2023-01-17T18:29:24.408Z,16.83
2023-01-17T18:31:52.294Z,10.38
2023-01-17T18:34:24.188Z,12.55
2023-01-17T18:36:51.884Z,9.25
2023-01-17T18:39:20.289Z,8.00
2023-01-17T18:41:49.061Z,14.45
2023-01-17T18:44:16.831Z,15.30
2023-01-17T18:46:43.842Z,24.15
2023-01-17T18:49:12.425Z,21.33
2023-01-17T18:51:39.354Z,14.80
2023-01-17T18:54:08.724Z,10.23
2023-01-17T18:56:35.935Z,11.60
2023-01-17T18:59:05.932Z,12.18
2023-01-17T19:01:35.948Z,14.52
2023-01-17T19:04:05.181Z,13.57
2023-01-17T19:06:36.790Z,24.67
2023-01-17T19:09:04.675Z,24.33
2023-01-17T19:11:31.518Z,17.60
2023-01-17T19:13:58.540Z,16.63
2023-01-17T19:16:31.023Z,14.63
2023-01-17T19:19:01.927Z,18.95
2023-01-17T19:21:29.300Z,13.68
2023-01-17T19:23:57.320Z,14.35
2023-01-17T19:26:27.123Z,17.38
2023-01-17T19:28:58.980Z,17.00
2023-01-17T19:31:30.721Z,13.68
2023-01-17T19:33:59.305Z,16.60
2023-01-17T19:36:33.472Z,15.98
2023-01-17T19:39:05.581Z,14.27
2023-01-17T19:41:35.654Z,16.70
2023-01-17T19:44:08.617Z,19.58
2023-01-17T19:46:36.798Z,18.17
2023-01-17T19:49:06.119Z,14.70
2023-01-17T19:51:37.969Z,15.52
2023-01-17T19:54:09.562Z,18.10
2023-01-17T19:56:37.393Z,17.50
2023-01-17T19:59:04.425Z,17.23
2023-01-17T20:01:32.993Z,15.95
2023-01-17T20:04:01.463Z,18.08
2023-01-17T20:06:31.083Z,16.13
2023-01-17T20:08:58.164Z,14.95
2023-01-17T20:11:26.590Z,15.35
2023-01-17T20:13:55.966Z,17.02
2023-01-17T20:16:24.642Z,14.88
2023-01-17T20:18:52.321Z,13.40
2023-01-17T20:21:27.857Z,16.38
2023-01-17T20:23:57.143Z,14.13
2023-01-17T20:26:31.057Z,16.50
2023-01-17T20:28:57.959Z,18.67
2023-01-17T20:31:26.664Z,17.03
2023-01-17T20:33:55.507Z,12.88
2023-01-17T20:36:24.914Z,23.08
2023-01-17T20:38:53.136Z,23.33
2023-01-17T20:41:29.892Z,20.05
2023-01-17T20:44:00.553Z,16.40
2023-01-17T20:46:35.417Z,17.08
2023-01-17T20:49:05.455Z,15.57
2023-01-17T20:51:38.326Z,17.52
2023-01-17T20:54:06.485Z,15.23
2023-01-17T20:56:37.748Z,16.17
2023-01-17T20:59:32.246Z,28.23
2023-01-17T21:01:59.679Z,21.33
2023-01-17T21:04:26.767Z,17.00
2023-01-17T21:06:54.665Z,13.30
2023-01-17T21:09:22.010Z,16.47
2023-01-17T21:11:49.320Z,14.98
2023-01-17T21:14:16.320Z,14.63
2023-01-17T21:16:43.325Z,13.25
2023-01-17T21:19:13.311Z,14.32
2023-01-17T21:21:40.450Z,13.20
2023-01-17T21:24:07.587Z,14.55
2023-01-17T21:26:34.839Z,14.93
2023-01-17T21:29:02.019Z,15.77
2023-01-17T21:31:34.453Z,15.40
2023-01-17T21:34:08.064Z,12.57
2023-01-17T21:36:37.964Z,13.00
2023-01-17T21:39:16.345Z,13.40
2023-01-17T21:41:45.758Z,15.45
2023-01-17T21:44:20.903Z,15.68
2023-01-17T21:46:48.472Z,17.00
2023-01-17T21:49:15.585Z,12.88
2023-01-17T21:51:55.240Z,15.20
2023-01-17T21:54:44.782Z,19.33
2023-01-17T21:57:31.882Z,11.48
2023-01-17T21:59:58.979Z,13.63
2023-01-17T22:02:25.957Z,13.20
2023-01-17T22:04:54.714Z,14.20
2023-01-17T22:07:22.030Z,12.57
2023-01-17T22:09:49.655Z,14.05
2023-01-17T22:12:16.491Z,14.17
2023-01-17T22:14:43.357Z,14.05
2023-01-17T22:17:10.422Z,16.05
2023-01-17T22:19:37.326Z,12.38
2023-01-17T22:22:04.293Z,15.38
2023-01-17T22:24:31.246Z,13.37
2023-01-17T22:26:58.208Z,12.82
2023-01-17T22:29:25.108Z,11.75
2023-01-17T22:31:52.013Z,15.02
2023-01-17T22:34:19.062Z,17.20
2023-01-17T22:36:45.999Z,12.17
2023-01-17T22:39:12.905Z,16.23
2023-01-17T22:41:39.678Z,13.95
2023-01-17T22:44:07.518Z,13.50
2023-01-17T22:46:37.207Z,12.60
2023-01-17T22:49:05.959Z,13.43
2023-01-17T22:51:32.970Z,42.25
2023-01-17T22:54:01.132Z,14.48
2023-01-17T22:56:33.296Z,16.55
2023-01-17T22:59:01.028Z,12.23
2023-01-17T23:01:30.246Z,12.60
2023-01-17T23:03:59.387Z,14.13
2023-01-17T23:06:33.645Z,15.63
2023-01-17T23:09:03.828Z,13.68
2023-01-17T23:11:39.216Z,14.45
2023-01-17T23:14:11.356Z,15.17
2023-01-17T23:17:18.237Z,11.43
2023-01-17T23:19:54.458Z,14.30
2023-01-17T23:22:27.181Z,12.65
2023-01-17T23:25:10.999Z,13.20
2023-01-17T23:28:01.855Z,12.33
2023-01-17T23:30:34.454Z,11.98
2023-01-17T23:33:10.219Z,13.80
2023-01-17T23:35:42.117Z,15.80
2023-01-17T23:38:26.270Z,16.00
2023-01-17T23:41:35.534Z,11.40
2023-01-17T23:44:03.748Z,15.35
2023-01-17T23:46:30.877Z,15.32
2023-01-17T23:48:57.753Z,10.75
2023-01-17T23:51:24.542Z,11.10
2023-01-17T23:53:57.152Z,11.97
2023-01-17T23:56:24.766Z,12.40
2023-01-17T23:58:51.636Z,14.40
